sensor_id;sensor_type;location;lat;lon;timestamp;P1;durP1;ratioP1;P2;durP2;ratioP2
75272;SDS011;63869;52.344;16.928;2023-06-19T00:01:13;13.13;;;9.38;;
75272;SDS011;63869;52.344;16.928;2023-06-19T00:03:38;12.63;;;9.73;;
75272;SDS011;63869;52.344;16.928;2023-06-19T00:06:05;12.60;;;9.10;;
75272;SDS011;63869;52.344;16.928;2023-06-19T00:08:31;12.40;;;9.60;;
75272;SDS011;63869;52.344;16.928;2023-06-19T00:10:56;13.13;;;9.50;;
75272;SDS011;63869;52.344;16.928;2023-06-19T00:13:21;12.32;;;9.27;;
75272;SDS011;63869;52.344;16.928;2023-06-19T00:15:47;11.38;;;9.57;;
75272;SDS011;63869;52.344;16.928;2023-06-19T00:18:12;14.30;;;9.68;;
75272;SDS011;63869;52.344;16.928;2023-06-19T00:20:37;12.30;;;9.38;;
75272;SDS011;63869;52.344;16.928;2023-06-19T00:23:04;13.20;;;9.70;;
75272;SDS011;63869;52.344;16.928;2023-06-19T00:25:30;12.43;;;9.60;;
75272;SDS011;63869;52.344;16.928;2023-06-19T00:27:55;11.25;;;8.88;;
75272;SDS011;63869;52.344;16.928;2023-06-19T00:30:20;13.70;;;9.25;;
75272;SDS011;63869;52.344;16.928;2023-06-19T00:32:46;12.15;;;9.65;;
75272;SDS011;63869;52.344;16.928;2023-06-19T00:35:14;13.27;;;9.55;;
75272;SDS011;63869;52.344;16.928;2023-06-19T00:37:41;12.75;;;9.18;;
75272;SDS011;63869;52.344;16.928;2023-06-19T00:40:10;12.88;;;9.82;;
75272;SDS011;63869;52.344;16.928;2023-06-19T00:42:41;11.80;;;9.57;;
75272;SDS011;63869;52.344;16.928;2023-06-19T00:45:06;13.27;;;10.15;;
75272;SDS011;63869;52.344;16.928;2023-06-19T00:47:33;13.73;;;10.13;;
75272;SDS011;63869;52.344;16.928;2023-06-19T00:49:59;12.35;;;9.65;;
75272;SDS011;63869;52.344;16.928;2023-06-19T00:52:24;15.55;;;10.13;;
75272;SDS011;63869;52.344;16.928;2023-06-19T00:54:49;11.95;;;9.98;;
75272;SDS011;63869;52.344;16.928;2023-06-19T00:57:15;14.32;;;9.88;;
75272;SDS011;63869;52.344;16.928;2023-06-19T00:59:41;13.88;;;10.93;;
75272;SDS011;63869;52.344;16.928;2023-06-19T01:02:06;13.02;;;10.27;;
75272;SDS011;63869;52.344;16.928;2023-06-19T01:04:31;12.77;;;9.93;;
75272;SDS011;63869;52.344;16.928;2023-06-19T01:07:02;12.70;;;9.73;;
75272;SDS011;63869;52.344;16.928;2023-06-19T01:09:37;13.38;;;10.60;;
75272;SDS011;63869;52.344;16.928;2023-06-19T01:12:12;13.68;;;9.35;;
75272;SDS011;63869;52.344;16.928;2023-06-19T01:14:47;13.80;;;10.27;;
75272;SDS011;63869;52.344;16.928;2023-06-19T01:17:18;12.77;;;10.25;;
75272;SDS011;63869;52.344;16.928;2023-06-19T01:19:45;13.82;;;10.57;;
75272;SDS011;63869;52.344;16.928;2023-06-19T01:22:10;13.05;;;9.93;;
75272;SDS011;63869;52.344;16.928;2023-06-19T01:24:36;12.88;;;10.15;;
75272;SDS011;63869;52.344;16.928;2023-06-19T01:27:01;13.32;;;10.13;;
75272;SDS011;63869;52.344;16.928;2023-06-19T01:29:27;15.95;;;10.60;;
75272;SDS011;63869;52.344;16.928;2023-06-19T01:31:59;13.60;;;10.30;;
75272;SDS011;63869;52.344;16.928;2023-06-19T01:34:35;13.40;;;10.40;;
75272;SDS011;63869;52.344;16.928;2023-06-19T01:37:03;13.43;;;10.93;;
75272;SDS011;63869;52.344;16.928;2023-06-19T01:39:35;13.30;;;11.20;;
75272;SDS011;63869;52.344;16.928;2023-06-19T01:42:01;17.02;;;11.43;;
75272;SDS011;63869;52.344;16.928;2023-06-19T01:44:27;13.57;;;10.52;;
75272;SDS011;63869;52.344;16.928;2023-06-19T01:46:53;14.30;;;10.68;;
75272;SDS011;63869;52.344;16.928;2023-06-19T01:49:18;14.07;;;11.00;;
75272;SDS011;63869;52.344;16.928;2023-06-19T01:51:45;13.38;;;10.18;;
75272;SDS011;63869;52.344;16.928;2023-06-19T01:54:12;13.88;;;10.65;;
75272;SDS011;63869;52.344;16.928;2023-06-19T01:56:37;14.57;;;10.38;;
75272;SDS011;63869;52.344;16.928;2023-06-19T01:59:03;15.30;;;10.48;;
75272;SDS011;63869;52.344;16.928;2023-06-19T02:01:28;17.35;;;10.38;;
75272;SDS011;63869;52.344;16.928;2023-06-19T02:03:54;14.50;;;10.35;;
75272;SDS011;63869;52.344;16.928;2023-06-19T02:06:19;13.77;;;10.30;;
75272;SDS011;63869;52.344;16.928;2023-06-19T02:08:48;14.38;;;10.70;;
75272;SDS011;63869;52.344;16.928;2023-06-19T02:11:14;13.02;;;10.07;;
75272;SDS011;63869;52.344;16.928;2023-06-19T02:13:40;13.88;;;10.32;;
75272;SDS011;63869;52.344;16.928;2023-06-19T02:16:06;17.65;;;10.38;;
75272;SDS011;63869;52.344;16.928;2023-06-19T02:18:31;12.80;;;10.50;;
75272;SDS011;63869;52.344;16.928;2023-06-19T02:20:58;15.18;;;10.55;;
75272;SDS011;63869;52.344;16.928;2023-06-19T02:23:23;14.60;;;10.52;;
75272;SDS011;63869;52.344;16.928;2023-06-19T02:25:50;14.88;;;10.77;;
75272;SDS011;63869;52.344;16.928;2023-06-19T02:28:15;16.02;;;10.40;;
75272;SDS011;63869;52.344;16.928;2023-06-19T02:30:41;15.75;;;10.32;;
75272;SDS011;63869;52.344;16.928;2023-06-19T02:33:06;16.17;;;9.77;;
75272;SDS011;63869;52.344;16.928;2023-06-19T02:35:32;14.15;;;10.68;;
75272;SDS011;63869;52.344;16.928;2023-06-19T02:37:58;13.65;;;10.68;;
75272;SDS011;63869;52.344;16.928;2023-06-19T02:40:23;20.08;;;11.30;;
75272;SDS011;63869;52.344;16.928;2023-06-19T02:42:48;13.07;;;10.35;;
75272;SDS011;63869;52.344;16.928;2023-06-19T02:45:14;16.88;;;11.00;;
75272;SDS011;63869;52.344;16.928;2023-06-19T02:47:40;13.77;;;9.88;;
75272;SDS011;63869;52.344;16.928;2023-06-19T02:50:05;13.50;;;10.07;;
75272;SDS011;63869;52.344;16.928;2023-06-19T02:52:31;15.57;;;9.95;;
75272;SDS011;63869;52.344;16.928;2023-06-19T02:54:57;14.80;;;10.27;;
75272;SDS011;63869;52.344;16.928;2023-06-19T02:57:22;16.20;;;9.93;;
75272;SDS011;63869;52.344;16.928;2023-06-19T02:59:47;16.13;;;10.75;;
75272;SDS011;63869;52.344;16.928;2023-06-19T03:02:13;14.23;;;9.55;;
75272;SDS011;63869;52.344;16.928;2023-06-19T03:04:39;15.18;;;9.90;;
75272;SDS011;63869;52.344;16.928;2023-06-19T03:07:06;15.75;;;10.35;;
75272;SDS011;63869;52.344;16.928;2023-06-19T03:09:32;13.50;;;10.02;;
75272;SDS011;63869;52.344;16.928;2023-06-19T03:11:57;13.55;;;9.35;;
75272;SDS011;63869;52.344;16.928;2023-06-19T03:14:22;14.50;;;9.90;;
75272;SDS011;63869;52.344;16.928;2023-06-19T03:16:48;12.68;;;9.95;;
75272;SDS011;63869;52.344;16.928;2023-06-19T03:19:13;13.25;;;10.00;;
75272;SDS011;63869;52.344;16.928;2023-06-19T03:21:38;16.63;;;9.93;;
75272;SDS011;63869;52.344;16.928;2023-06-19T03:24:04;16.08;;;10.20;;
75272;SDS011;63869;52.344;16.928;2023-06-19T03:26:29;13.88;;;9.98;;
75272;SDS011;63869;52.344;16.928;2023-06-19T03:28:54;12.20;;;9.85;;
75272;SDS011;63869;52.344;16.928;2023-06-19T03:31:20;12.30;;;10.00;;
75272;SDS011;63869;52.344;16.928;2023-06-19T03:33:45;15.77;;;10.40;;
75272;SDS011;63869;52.344;16.928;2023-06-19T03:36:10;16.08;;;10.18;;
75272;SDS011;63869;52.344;16.928;2023-06-19T03:38:36;13.88;;;10.07;;
75272;SDS011;63869;52.344;16.928;2023-06-19T03:41:01;15.15;;;11.55;;
75272;SDS011;63869;52.344;16.928;2023-06-19T03:43:26;15.15;;;10.93;;
75272;SDS011;63869;52.344;16.928;2023-06-19T03:45:52;14.57;;;10.68;;
75272;SDS011;63869;52.344;16.928;2023-06-19T03:48:17;14.07;;;10.98;;
75272;SDS011;63869;52.344;16.928;2023-06-19T03:50:43;19.40;;;11.85;;
75272;SDS011;63869;52.344;16.928;2023-06-19T03:53:09;17.65;;;12.27;;
75272;SDS011;63869;52.344;16.928;2023-06-19T03:55:34;17.98;;;13.73;;
75272;SDS011;63869;52.344;16.928;2023-06-19T03:57:59;20.80;;;14.05;;
75272;SDS011;63869;52.344;16.928;2023-06-19T04:00:28;21.20;;;14.20;;
75272;SDS011;63869;52.344;16.928;2023-06-19T04:02:53;24.13;;;14.32;;
75272;SDS011;63869;52.344;16.928;2023-06-19T04:05:18;21.83;;;14.57;;
75272;SDS011;63869;52.344;16.928;2023-06-19T04:07:47;24.70;;;14.68;;
75272;SDS011;63869;52.344;16.928;2023-06-19T04:10:12;21.25;;;14.50;;
75272;SDS011;63869;52.344;16.928;2023-06-19T04:12:38;21.20;;;15.13;;
75272;SDS011;63869;52.344;16.928;2023-06-19T04:15:05;20.08;;;15.13;;
75272;SDS011;63869;52.344;16.928;2023-06-19T04:17:31;22.45;;;15.52;;
75272;SDS011;63869;52.344;16.928;2023-06-19T04:19:56;22.75;;;16.13;;
75272;SDS011;63869;52.344;16.928;2023-06-19T04:22:22;20.35;;;14.23;;
75272;SDS011;63869;52.344;16.928;2023-06-19T04:24:51;21.50;;;14.35;;
75272;SDS011;63869;52.344;16.928;2023-06-19T04:27:17;22.90;;;15.93;;
75272;SDS011;63869;52.344;16.928;2023-06-19T04:29:42;23.50;;;15.07;;
75272;SDS011;63869;52.344;16.928;2023-06-19T04:32:09;21.77;;;14.20;;
75272;SDS011;63869;52.344;16.928;2023-06-19T04:34:39;19.77;;;14.02;;
75272;SDS011;63869;52.344;16.928;2023-06-19T04:37:06;22.30;;;14.50;;
75272;SDS011;63869;52.344;16.928;2023-06-19T04:39:31;21.42;;;14.55;;
75272;SDS011;63869;52.344;16.928;2023-06-19T04:41:57;19.17;;;13.80;;
75272;SDS011;63869;52.344;16.928;2023-06-19T04:44:23;22.25;;;13.68;;
75272;SDS011;63869;52.344;16.928;2023-06-19T04:46:48;18.90;;;14.10;;
75272;SDS011;63869;52.344;16.928;2023-06-19T04:49:13;20.88;;;14.30;;
75272;SDS011;63869;52.344;16.928;2023-06-19T04:51:40;19.15;;;13.57;;
75272;SDS011;63869;52.344;16.928;2023-06-19T04:54:05;25.15;;;15.23;;
75272;SDS011;63869;52.344;16.928;2023-06-19T04:56:31;20.77;;;14.50;;
75272;SDS011;63869;52.344;16.928;2023-06-19T04:58:57;21.15;;;14.63;;
75272;SDS011;63869;52.344;16.928;2023-06-19T05:01:24;26.88;;;14.35;;
75272;SDS011;63869;52.344;16.928;2023-06-19T05:03:55;23.35;;;15.57;;
75272;SDS011;63869;52.344;16.928;2023-06-19T05:06:24;19.90;;;14.82;;
75272;SDS011;63869;52.344;16.928;2023-06-19T05:08:49;19.42;;;15.18;;
75272;SDS011;63869;52.344;16.928;2023-06-19T05:11:14;19.30;;;14.50;;
75272;SDS011;63869;52.344;16.928;2023-06-19T05:13:40;20.63;;;13.55;;
75272;SDS011;63869;52.344;16.928;2023-06-19T05:16:05;19.70;;;14.63;;
75272;SDS011;63869;52.344;16.928;2023-06-19T05:18:30;18.80;;;14.07;;
75272;SDS011;63869;52.344;16.928;2023-06-19T05:20:56;22.92;;;14.45;;
75272;SDS011;63869;52.344;16.928;2023-06-19T05:23:23;22.60;;;14.13;;
75272;SDS011;63869;52.344;16.928;2023-06-19T05:25:48;19.92;;;13.77;;
75272;SDS011;63869;52.344;16.928;2023-06-19T05:28:13;19.05;;;14.38;;
75272;SDS011;63869;52.344;16.928;2023-06-19T05:30:39;20.77;;;13.52;;
75272;SDS011;63869;52.344;16.928;2023-06-19T05:33:04;24.10;;;14.80;;
75272;SDS011;63869;52.344;16.928;2023-06-19T05:35:32;27.73;;;14.65;;
75272;SDS011;63869;52.344;16.928;2023-06-19T05:37:58;17.95;;;13.20;;
75272;SDS011;63869;52.344;16.928;2023-06-19T05:40:23;19.17;;;13.95;;
75272;SDS011;63869;52.344;16.928;2023-06-19T05:42:48;15.07;;;13.13;;
75272;SDS011;63869;52.344;16.928;2023-06-19T05:45:14;15.27;;;12.82;;
75272;SDS011;63869;52.344;16.928;2023-06-19T05:47:39;17.80;;;12.77;;
75272;SDS011;63869;52.344;16.928;2023-06-19T05:50:04;15.07;;;12.45;;
75272;SDS011;63869;52.344;16.928;2023-06-19T05:52:30;192.65;;;20.85;;
75272;SDS011;63869;52.344;16.928;2023-06-19T05:54:55;23.85;;;11.65;;
75272;SDS011;63869;52.344;16.928;2023-06-19T05:57:23;16.27;;;11.68;;
75272;SDS011;63869;52.344;16.928;2023-06-19T05:59:49;14.70;;;11.88;;
75272;SDS011;63869;52.344;16.928;2023-06-19T06:02:15;16.65;;;12.27;;
75272;SDS011;63869;52.344;16.928;2023-06-19T06:04:42;15.60;;;11.05;;
75272;SDS011;63869;52.344;16.928;2023-06-19T06:07:08;13.88;;;11.23;;
75272;SDS011;63869;52.344;16.928;2023-06-19T06:09:34;15.05;;;11.10;;
75272;SDS011;63869;52.344;16.928;2023-06-19T06:11:59;15.25;;;11.63;;
75272;SDS011;63869;52.344;16.928;2023-06-19T06:14:25;19.38;;;11.70;;
75272;SDS011;63869;52.344;16.928;2023-06-19T06:16:51;14.07;;;10.20;;
75272;SDS011;63869;52.344;16.928;2023-06-19T06:19:16;14.88;;;9.70;;
75272;SDS011;63869;52.344;16.928;2023-06-19T06:21:44;13.57;;;9.90;;
75272;SDS011;63869;52.344;16.928;2023-06-19T06:24:09;12.13;;;9.80;;
75272;SDS011;63869;52.344;16.928;2023-06-19T06:26:35;10.70;;;8.98;;
75272;SDS011;63869;52.344;16.928;2023-06-19T06:29:00;15.55;;;10.15;;
75272;SDS011;63869;52.344;16.928;2023-06-19T06:31:26;13.27;;;9.20;;
75272;SDS011;63869;52.344;16.928;2023-06-19T06:33:52;9.63;;;8.35;;
75272;SDS011;63869;52.344;16.928;2023-06-19T06:36:17;11.52;;;8.75;;
75272;SDS011;63869;52.344;16.928;2023-06-19T06:38:43;10.77;;;8.27;;
75272;SDS011;63869;52.344;16.928;2023-06-19T06:41:08;10.93;;;8.30;;
75272;SDS011;63869;52.344;16.928;2023-06-19T06:43:34;11.70;;;8.13;;
75272;SDS011;63869;52.344;16.928;2023-06-19T06:45:59;8.85;;;7.30;;
75272;SDS011;63869;52.344;16.928;2023-06-19T06:48:25;13.77;;;8.75;;
75272;SDS011;63869;52.344;16.928;2023-06-19T06:50:50;9.90;;;7.65;;
75272;SDS011;63869;52.344;16.928;2023-06-19T06:53:23;9.70;;;7.80;;
75272;SDS011;63869;52.344;16.928;2023-06-19T06:55:50;13.77;;;7.78;;
75272;SDS011;63869;52.344;16.928;2023-06-19T06:58:15;10.00;;;7.77;;
75272;SDS011;63869;52.344;16.928;2023-06-19T07:00:42;11.38;;;7.80;;
75272;SDS011;63869;52.344;16.928;2023-06-19T07:03:08;9.70;;;7.45;;
75272;SDS011;63869;52.344;16.928;2023-06-19T07:05:33;7.65;;;6.78;;
75272;SDS011;63869;52.344;16.928;2023-06-19T07:07:58;9.95;;;6.75;;
75272;SDS011;63869;52.344;16.928;2023-06-19T07:10:24;7.55;;;6.68;;
75272;SDS011;63869;52.344;16.928;2023-06-19T07:12:49;7.10;;;6.10;;
75272;SDS011;63869;52.344;16.928;2023-06-19T07:15:16;6.72;;;5.40;;
75272;SDS011;63869;52.344;16.928;2023-06-19T07:17:42;6.15;;;4.90;;
75272;SDS011;63869;52.344;16.928;2023-06-19T07:20:10;10.15;;;5.78;;
75272;SDS011;63869;52.344;16.928;2023-06-19T07:22:35;7.07;;;4.63;;
75272;SDS011;63869;52.344;16.928;2023-06-19T07:25:01;6.10;;;5.25;;
75272;SDS011;63869;52.344;16.928;2023-06-19T07:27:28;5.18;;;3.83;;
75272;SDS011;63869;52.344;16.928;2023-06-19T07:29:54;8.52;;;5.05;;
75272;SDS011;63869;52.344;16.928;2023-06-19T07:32:19;8.55;;;6.13;;
75272;SDS011;63869;52.344;16.928;2023-06-19T07:34:45;7.63;;;5.47;;
75272;SDS011;63869;52.344;16.928;2023-06-19T07:37:10;8.25;;;6.22;;
75272;SDS011;63869;52.344;16.928;2023-06-19T07:39:42;6.72;;;5.97;;
75272;SDS011;63869;52.344;16.928;2023-06-19T07:42:09;8.68;;;5.53;;
75272;SDS011;63869;52.344;16.928;2023-06-19T07:44:35;6.65;;;5.40;;
75272;SDS011;63869;52.344;16.928;2023-06-19T07:47:00;8.13;;;5.82;;
75272;SDS011;63869;52.344;16.928;2023-06-19T07:49:26;8.32;;;5.88;;
75272;SDS011;63869;52.344;16.928;2023-06-19T07:51:51;8.68;;;6.20;;
75272;SDS011;63869;52.344;16.928;2023-06-19T07:54:16;7.10;;;6.33;;
75272;SDS011;63869;52.344;16.928;2023-06-19T07:56:43;6.78;;;5.70;;
75272;SDS011;63869;52.344;16.928;2023-06-19T07:59:08;6.43;;;5.75;;
75272;SDS011;63869;52.344;16.928;2023-06-19T08:01:34;5.90;;;5.17;;
75272;SDS011;63869;52.344;16.928;2023-06-19T08:03:59;7.95;;;5.63;;
75272;SDS011;63869;52.344;16.928;2023-06-19T08:06:24;8.35;;;6.30;;
75272;SDS011;63869;52.344;16.928;2023-06-19T08:08:50;6.00;;;5.30;;
75272;SDS011;63869;52.344;16.928;2023-06-19T08:11:16;8.60;;;5.88;;
75272;SDS011;63869;52.344;16.928;2023-06-19T08:13:42;6.60;;;5.45;;
75272;SDS011;63869;52.344;16.928;2023-06-19T08:16:07;7.38;;;5.70;;
75272;SDS011;63869;52.344;16.928;2023-06-19T08:18:32;6.82;;;4.90;;
75272;SDS011;63869;52.344;16.928;2023-06-19T08:20:58;5.80;;;5.05;;
75272;SDS011;63869;52.344;16.928;2023-06-19T08:23:24;8.88;;;6.38;;
75272;SDS011;63869;52.344;16.928;2023-06-19T08:25:49;5.90;;;4.85;;
75272;SDS011;63869;52.344;16.928;2023-06-19T08:28:16;7.82;;;5.57;;
75272;SDS011;63869;52.344;16.928;2023-06-19T08:30:41;6.60;;;5.70;;
75272;SDS011;63869;52.344;16.928;2023-06-19T08:33:07;8.37;;;5.77;;
75272;SDS011;63869;52.344;16.928;2023-06-19T08:35:33;8.55;;;5.93;;
75272;SDS011;63869;52.344;16.928;2023-06-19T08:37:58;8.63;;;5.93;;
75272;SDS011;63869;52.344;16.928;2023-06-19T08:40:23;7.30;;;5.60;;
75272;SDS011;63869;52.344;16.928;2023-06-19T08:42:49;6.50;;;5.72;;
75272;SDS011;63869;52.344;16.928;2023-06-19T08:45:14;9.30;;;5.60;;
75272;SDS011;63869;52.344;16.928;2023-06-19T08:47:41;11.55;;;6.35;;
75272;SDS011;63869;52.344;16.928;2023-06-19T08:50:06;8.68;;;5.88;;
75272;SDS011;63869;52.344;16.928;2023-06-19T08:52:32;5.90;;;5.30;;
75272;SDS011;63869;52.344;16.928;2023-06-19T08:54:57;6.47;;;5.43;;
75272;SDS011;63869;52.344;16.928;2023-06-19T08:57:32;6.33;;;5.73;;
75272;SDS011;63869;52.344;16.928;2023-06-19T08:59:58;6.32;;;5.45;;
75272;SDS011;63869;52.344;16.928;2023-06-19T09:02:23;23.55;;;6.53;;
75272;SDS011;63869;52.344;16.928;2023-06-19T09:04:49;8.07;;;5.72;;
75272;SDS011;63869;52.344;16.928;2023-06-19T09:07:14;10.70;;;5.83;;
75272;SDS011;63869;52.344;16.928;2023-06-19T09:09:44;11.77;;;6.00;;
75272;SDS011;63869;52.344;16.928;2023-06-19T09:12:12;6.43;;;5.55;;
75272;SDS011;63869;52.344;16.928;2023-06-19T09:14:39;7.13;;;6.30;;
75272;SDS011;63869;52.344;16.928;2023-06-19T09:17:05;7.47;;;5.40;;
75272;SDS011;63869;52.344;16.928;2023-06-19T09:19:32;7.75;;;5.78;;
75272;SDS011;63869;52.344;16.928;2023-06-19T09:22:03;6.28;;;5.32;;
75272;SDS011;63869;52.344;16.928;2023-06-19T09:29:40;10.55;;;5.65;;
75272;SDS011;63869;52.344;16.928;2023-06-19T09:32:16;9.75;;;6.00;;
75272;SDS011;63869;52.344;16.928;2023-06-19T09:34:43;10.80;;;6.00;;
75272;SDS011;63869;52.344;16.928;2023-06-19T09:37:08;9.07;;;6.47;;
75272;SDS011;63869;52.344;16.928;2023-06-19T09:39:35;8.27;;;6.30;;
75272;SDS011;63869;52.344;16.928;2023-06-19T09:42:02;8.38;;;5.85;;
75272;SDS011;63869;52.344;16.928;2023-06-19T09:44:29;6.53;;;5.75;;
75272;SDS011;63869;52.344;16.928;2023-06-19T09:46:56;6.93;;;6.03;;
75272;SDS011;63869;52.344;16.928;2023-06-19T09:49:24;6.25;;;5.55;;
75272;SDS011;63869;52.344;16.928;2023-06-19T09:51:56;19.75;;;7.05;;
75272;SDS011;63869;52.344;16.928;2023-06-19T09:54:21;6.77;;;6.07;;
75272;SDS011;63869;52.344;16.928;2023-06-19T09:56:47;6.43;;;5.80;;
75272;SDS011;63869;52.344;16.928;2023-06-19T09:59:16;7.63;;;6.00;;
75272;SDS011;63869;52.344;16.928;2023-06-19T10:01:43;6.25;;;5.65;;
75272;SDS011;63869;52.344;16.928;2023-06-19T10:04:10;6.80;;;5.97;;
75272;SDS011;63869;52.344;16.928;2023-06-19T10:06:44;7.15;;;5.65;;
75272;SDS011;63869;52.344;16.928;2023-06-19T10:09:11;6.00;;;5.40;;
75272;SDS011;63869;52.344;16.928;2023-06-19T10:11:46;8.57;;;5.47;;
75272;SDS011;63869;52.344;16.928;2023-06-19T10:14:19;6.65;;;5.70;;
75272;SDS011;63869;52.344;16.928;2023-06-19T10:16:46;7.88;;;5.63;;
75272;SDS011;63869;52.344;16.928;2023-06-19T10:19:15;11.38;;;5.88;;
75272;SDS011;63869;52.344;16.928;2023-06-19T10:21:45;8.05;;;5.63;;
75272;SDS011;63869;52.344;16.928;2023-06-19T10:24:15;66.93;;;8.38;;
75272;SDS011;63869;52.344;16.928;2023-06-19T10:26:44;8.10;;;5.78;;
75272;SDS011;63869;52.344;16.928;2023-06-19T10:29:16;6.80;;;5.32;;
75272;SDS011;63869;52.344;16.928;2023-06-19T10:31:42;10.02;;;5.72;;
75272;SDS011;63869;52.344;16.928;2023-06-19T10:34:09;6.30;;;5.70;;
75272;SDS011;63869;52.344;16.928;2023-06-19T10:36:34;7.47;;;5.70;;
75272;SDS011;63869;52.344;16.928;2023-06-19T10:39:00;6.55;;;5.40;;
75272;SDS011;63869;52.344;16.928;2023-06-19T10:41:25;9.40;;;5.30;;
75272;SDS011;63869;52.344;16.928;2023-06-19T10:43:58;180.05;;;14.77;;
75272;SDS011;63869;52.344;16.928;2023-06-19T10:46:28;9.93;;;5.63;;
75272;SDS011;63869;52.344;16.928;2023-06-19T10:48:55;9.00;;;5.32;;
75272;SDS011;63869;52.344;16.928;2023-06-19T10:51:25;6.45;;;5.30;;
75272;SDS011;63869;52.344;16.928;2023-06-19T10:53:55;9.48;;;5.18;;
75272;SDS011;63869;52.344;16.928;2023-06-19T10:56:22;65.15;;;7.90;;
75272;SDS011;63869;52.344;16.928;2023-06-19T10:58:56;12.93;;;6.15;;
75272;SDS011;63869;52.344;16.928;2023-06-19T11:01:47;12.95;;;5.55;;
75272;SDS011;63869;52.344;16.928;2023-06-19T11:04:14;7.18;;;5.18;;
75272;SDS011;63869;52.344;16.928;2023-06-19T11:06:41;8.05;;;5.60;;
75272;SDS011;63869;52.344;16.928;2023-06-19T11:09:08;6.03;;;5.32;;
75272;SDS011;63869;52.344;16.928;2023-06-19T11:11:36;6.93;;;5.18;;
75272;SDS011;63869;52.344;16.928;2023-06-19T11:14:01;7.57;;;5.38;;
75272;SDS011;63869;52.344;16.928;2023-06-19T11:16:27;5.78;;;5.18;;
75272;SDS011;63869;52.344;16.928;2023-06-19T11:19:02;6.82;;;5.32;;
75272;SDS011;63869;52.344;16.928;2023-06-19T11:21:31;13.98;;;5.90;;
75272;SDS011;63869;52.344;16.928;2023-06-19T11:24:01;6.63;;;5.30;;
75272;SDS011;63869;52.344;16.928;2023-06-19T11:26:27;10.68;;;5.82;;
75272;SDS011;63869;52.344;16.928;2023-06-19T11:28:52;6.40;;;5.45;;
75272;SDS011;63869;52.344;16.928;2023-06-19T11:31:24;5.47;;;4.97;;
75272;SDS011;63869;52.344;16.928;2023-06-19T11:34:00;8.30;;;5.33;;
75272;SDS011;63869;52.344;16.928;2023-06-19T11:36:27;5.50;;;4.93;;
75272;SDS011;63869;52.344;16.928;2023-06-19T11:38:52;7.22;;;4.90;;
75272;SDS011;63869;52.344;16.928;2023-06-19T11:41:27;8.63;;;5.28;;
75272;SDS011;63869;52.344;16.928;2023-06-19T11:44:03;37.45;;;7.35;;
75272;SDS011;63869;52.344;16.928;2023-06-19T11:46:30;4.90;;;4.40;;
75272;SDS011;63869;52.344;16.928;2023-06-19T11:49:09;5.72;;;4.93;;
75272;SDS011;63869;52.344;16.928;2023-06-19T11:51:39;18.33;;;6.30;;
75272;SDS011;63869;52.344;16.928;2023-06-19T11:54:07;8.82;;;4.95;;
75272;SDS011;63869;52.344;16.928;2023-06-19T11:56:34;8.27;;;4.97;;
75272;SDS011;63869;52.344;16.928;2023-06-19T11:59:00;6.28;;;4.82;;
75272;SDS011;63869;52.344;16.928;2023-06-19T12:01:26;7.70;;;4.50;;
75272;SDS011;63869;52.344;16.928;2023-06-19T12:03:51;15.38;;;5.00;;
75272;SDS011;63869;52.344;16.928;2023-06-19T12:06:17;38.50;;;6.63;;
75272;SDS011;63869;52.344;16.928;2023-06-19T12:08:43;7.55;;;4.30;;
75272;SDS011;63869;52.344;16.928;2023-06-19T12:11:09;5.43;;;4.50;;
75272;SDS011;63869;52.344;16.928;2023-06-19T12:13:35;4.88;;;4.30;;
75272;SDS011;63869;52.344;16.928;2023-06-19T12:16:01;6.20;;;4.80;;
75272;SDS011;63869;52.344;16.928;2023-06-19T12:18:29;5.95;;;4.78;;
75272;SDS011;63869;52.344;16.928;2023-06-19T12:20:54;5.55;;;4.28;;
75272;SDS011;63869;52.344;16.928;2023-06-19T12:23:20;5.63;;;4.22;;
75272;SDS011;63869;52.344;16.928;2023-06-19T12:25:45;6.50;;;4.77;;
75272;SDS011;63869;52.344;16.928;2023-06-19T12:28:10;8.18;;;4.82;;
75272;SDS011;63869;52.344;16.928;2023-06-19T12:30:36;6.13;;;4.72;;
75272;SDS011;63869;52.344;16.928;2023-06-19T12:33:01;7.28;;;5.03;;
75272;SDS011;63869;52.344;16.928;2023-06-19T12:35:29;6.38;;;5.53;;
75272;SDS011;63869;52.344;16.928;2023-06-19T12:37:54;6.25;;;5.57;;
75272;SDS011;63869;52.344;16.928;2023-06-19T12:40:20;6.78;;;5.57;;
75272;SDS011;63869;52.344;16.928;2023-06-19T12:42:45;7.50;;;5.70;;
75272;SDS011;63869;52.344;16.928;2023-06-19T12:45:11;6.32;;;5.63;;
75272;SDS011;63869;52.344;16.928;2023-06-19T12:47:36;5.93;;;5.32;;
75272;SDS011;63869;52.344;16.928;2023-06-19T12:50:02;6.75;;;5.55;;
75272;SDS011;63869;52.344;16.928;2023-06-19T12:52:28;9.13;;;5.80;;
75272;SDS011;63869;52.344;16.928;2023-06-19T12:54:53;21.20;;;6.60;;
75272;SDS011;63869;52.344;16.928;2023-06-19T12:57:19;6.57;;;5.60;;
75272;SDS011;63869;52.344;16.928;2023-06-19T12:59:44;7.05;;;5.13;;
75272;SDS011;63869;52.344;16.928;2023-06-19T13:02:09;6.07;;;5.47;;
75272;SDS011;63869;52.344;16.928;2023-06-19T13:04:35;8.18;;;5.70;;
75272;SDS011;63869;52.344;16.928;2023-06-19T13:07:00;9.00;;;5.75;;
75272;SDS011;63869;52.344;16.928;2023-06-19T13:09:25;8.88;;;5.93;;
75272;SDS011;63869;52.344;16.928;2023-06-19T13:11:52;10.60;;;5.70;;
75272;SDS011;63869;52.344;16.928;2023-06-19T13:14:17;7.93;;;5.03;;
75272;SDS011;63869;52.344;16.928;2023-06-19T13:16:42;8.82;;;5.90;;
75272;SDS011;63869;52.344;16.928;2023-06-19T13:19:08;6.43;;;5.47;;
75272;SDS011;63869;52.344;16.928;2023-06-19T13:21:33;6.60;;;5.47;;
75272;SDS011;63869;52.344;16.928;2023-06-19T13:24:01;6.40;;;5.00;;
75272;SDS011;63869;52.344;16.928;2023-06-19T13:26:27;6.00;;;5.38;;
75272;SDS011;63869;52.344;16.928;2023-06-19T13:28:52;6.10;;;5.50;;
75272;SDS011;63869;52.344;16.928;2023-06-19T13:31:17;7.55;;;5.40;;
75272;SDS011;63869;52.344;16.928;2023-06-19T13:33:43;6.90;;;5.10;;
75272;SDS011;63869;52.344;16.928;2023-06-19T13:36:08;6.45;;;5.57;;
75272;SDS011;63869;52.344;16.928;2023-06-19T13:38:34;6.00;;;5.40;;
75272;SDS011;63869;52.344;16.928;2023-06-19T13:40:59;5.93;;;5.43;;
75272;SDS011;63869;52.344;16.928;2023-06-19T13:43:24;8.03;;;5.47;;
75272;SDS011;63869;52.344;16.928;2023-06-19T13:45:50;6.60;;;5.40;;
75272;SDS011;63869;52.344;16.928;2023-06-19T13:48:15;5.80;;;5.20;;
75272;SDS011;63869;52.344;16.928;2023-06-19T13:50:41;5.90;;;5.07;;
75272;SDS011;63869;52.344;16.928;2023-06-19T13:53:06;5.93;;;5.25;;
75272;SDS011;63869;52.344;16.928;2023-06-19T13:55:32;5.95;;;5.35;;
75272;SDS011;63869;52.344;16.928;2023-06-19T13:57:57;6.87;;;5.37;;
75272;SDS011;63869;52.344;16.928;2023-06-19T14:00:22;19.93;;;5.57;;
75272;SDS011;63869;52.344;16.928;2023-06-19T14:02:48;5.93;;;5.35;;
75272;SDS011;63869;52.344;16.928;2023-06-19T14:05:14;7.60;;;5.80;;
75272;SDS011;63869;52.344;16.928;2023-06-19T14:07:40;6.05;;;5.38;;
75272;SDS011;63869;52.344;16.928;2023-06-19T14:10:07;7.65;;;5.57;;
75272;SDS011;63869;52.344;16.928;2023-06-19T14:12:33;9.98;;;5.30;;
75272;SDS011;63869;52.344;16.928;2023-06-19T14:14:58;8.90;;;5.60;;
75272;SDS011;63869;52.344;16.928;2023-06-19T14:17:24;5.60;;;5.03;;
75272;SDS011;63869;52.344;16.928;2023-06-19T14:19:49;20.17;;;6.63;;
75272;SDS011;63869;52.344;16.928;2023-06-19T14:22:17;8.02;;;5.15;;
75272;SDS011;63869;52.344;16.928;2023-06-19T14:24:44;5.72;;;5.13;;